Holesov, Czech Republic
Current Conditions -  °F | °C
As of 10:00 AM on Friday 31 Oct 2014 (Local Time) from LKMT Reporting Station
Haze Haze  
Wind Chill: 43°   Ceiling: 2300
Heat Index: 43°   Visibility: 2.1mi
Dew Point: 41°   Wind: 0mph
Humidity: 93%   Direction: NA
Pressure: 30.36"   Gusts: NA
Location:  49.34°N, 17.58°E
Report Text: LKMT 310800Z 00000KT 3500 BR OVC023 06/05 Q1028 NOSIG
Loading
Personal Weather Stations






























Interactive Weather Map
Tropical Storm Tracking
New forecast layout! Learn more

10-Day Weather Forecast

Advertisements
Track Severe Weather on mobile